Minneapolis, Minnesota
Current Conditions -  °F | °C
As of 10:53 PM on Sunday 21 Dec 2014 (Local Time) from KMSP Reporting Station
Haze Haze  
Wind Chill: 31°   Ceiling: 800
Heat Index: 38°   Visibility: 6mi
Dew Point: 35°   Wind: 9mph
Humidity: 89%   Direction: 140°SE
Pressure: 29.72"   Gusts: NA
Location:  44.98°N, 93.26°W
Report Text: KMSP 220453Z 14008KT 6SM BR OVC008 03/02 A2972 RMK AO2 SLP073 T00330017 $
Loading
Personal Weather Stations






























Interactive Weather Map New forecast layout! Learn more

10-Day Weather Forecast

Advertisements
Track Severe Weather on mobile